CheckWX is a tool to help pilots better visualize weather data.  It is not intended as a substitute for an official pre-flight weather briefing.

21:05:11 UTC

KAHQ METAR
Wahoo Municipal Airport
Wahoo, Nebraska, USA
Current

10 mins ago

KAHQ 232055Z AUTO 28012KT 10SM SCT060 SCT070 BKN080 18/08 A3022 RMK AO2 T01760078
Observed
May-23 @ 20:55 UTC
Wind
  • 280° at 12 KTS
Visibility
10 SM
Flight Rules
VFR
Cloud Levels
  • Scattered at 6,000' AGL
  • Scattered at 7,000' AGL
  • Broken at 8,000' AGL
Temperature
18°C / 64°F
Dewpoint
C / 46°F
Humidity
52%
Altimeter
30.22" Hg
Pressure
1023.42 hPa
Previous

30 mins ago

KAHQ 232035Z AUTO 32009KT 10SM SCT090 19/07 A3012 RMK AO2 T01850070
Observed
May-23 @ 20:35 UTC
Wind
  • 320° at 9 KTS
Visibility
10 SM
Flight Rules
VFR
Cloud Levels
  • Scattered at 9,000' AGL
Temperature
19°C / 66°F
Dewpoint
C / 45°F
Humidity
46%
Altimeter
30.12" Hg
Pressure
1020.02 hPa
Previous

2 hours ago

KAHQ 231915Z AUTO 36004KT 10SM CLR 19/07 A3010 RMK AO2 T01850066
Observed
May-23 @ 19:15 UTC
Wind
  • 360° at 4 KTS
Visibility
10 SM
Flight Rules
VFR
Cloud Levels
  • Clear skies
Temperature
19°C / 66°F
Dewpoint
C / 45°F
Humidity
46%
Altimeter
30.1" Hg
Pressure
1019.32 hPa